createdAt,value
2023-02-02T00:01:30.614Z,17.45
2023-02-02T00:03:58.102Z,14.27
2023-02-02T00:06:28.586Z,12.88
2023-02-02T00:09:01.037Z,8.00
2023-02-02T00:11:28.200Z,11.60
2023-02-02T00:13:55.527Z,8.55
2023-02-02T00:16:28.839Z,7.32
2023-02-02T00:18:57.865Z,5.88
2023-02-02T00:21:25.226Z,13.02
2023-02-02T00:23:52.809Z,5.10
2023-02-02T00:26:21.554Z,9.00
2023-02-02T00:28:48.783Z,4.70
2023-02-02T00:31:16.073Z,8.35
2023-02-02T00:33:47.664Z,6.13
2023-02-02T00:36:15.350Z,3.25
2023-02-02T00:38:42.433Z,6.45
2023-02-02T00:41:09.558Z,11.57
2023-02-02T00:43:36.723Z,4.32
2023-02-02T00:46:03.900Z,4.45
2023-02-02T00:48:30.965Z,2.50
2023-02-02T00:50:58.071Z,6.25
2023-02-02T00:53:25.306Z,5.88
2023-02-02T00:55:52.377Z,8.52
2023-02-02T00:58:19.475Z,4.80
2023-02-02T01:00:46.483Z,3.45
2023-02-02T01:03:13.552Z,8.30
2023-02-02T01:05:40.810Z,5.30
2023-02-02T01:08:08.038Z,6.80
2023-02-02T01:10:36.056Z,3.42
2023-02-02T01:13:03.652Z,5.43
2023-02-02T01:15:30.855Z,4.63
2023-02-02T01:17:58.421Z,8.02
2023-02-02T01:20:26.077Z,2.10
2023-02-02T01:22:53.332Z,3.80
2023-02-02T01:25:20.379Z,3.15
2023-02-02T01:27:47.507Z,4.78
2023-02-02T01:30:14.758Z,6.25
2023-02-02T01:32:41.821Z,5.15
2023-02-02T01:35:10.419Z,14.32
2023-02-02T01:37:38.761Z,8.20
2023-02-02T01:40:06.781Z,7.88
2023-02-02T01:42:33.812Z,7.18
2023-02-02T01:45:16.925Z,7.40
2023-02-02T01:48:03.749Z,6.03
2023-02-02T01:53:02.940Z,3.88
2023-02-02T01:55:31.750Z,3.50
2023-02-02T01:58:07.200Z,6.38
2023-02-02T02:00:34.609Z,2.90
2023-02-02T02:03:09.893Z,8.68
2023-02-02T02:05:42.199Z,5.35
2023-02-02T02:08:30.952Z,5.20
2023-02-02T02:10:58.379Z,7.00
2023-02-02T02:13:47.551Z,5.30
2023-02-02T02:16:27.021Z,6.00
2023-02-02T02:19:22.042Z,2.28
2023-02-02T02:22:32.602Z,3.08
2023-02-02T02:25:31.533Z,3.50
2023-02-02T02:28:36.141Z,5.70
2023-02-02T02:31:13.190Z,5.20
2023-02-02T02:33:46.413Z,6.40
2023-02-02T02:36:46.113Z,10.88
2023-02-02T02:39:19.640Z,3.75
2023-02-02T02:41:54.030Z,5.13
2023-02-02T02:44:22.332Z,5.60
2023-02-02T02:46:50.713Z,3.50
2023-02-02T02:49:18.522Z,9.00
2023-02-02T02:51:49.576Z,5.50
2023-02-02T02:54:38.278Z,6.80
2023-02-02T02:57:43.109Z,4.10
2023-02-02T03:00:53.793Z,2.53
2023-02-02T03:03:56.046Z,5.90
2023-02-02T03:06:55.323Z,5.32
2023-02-02T03:09:26.981Z,4.95
2023-02-02T03:11:56.816Z,4.88
2023-02-02T03:14:23.853Z,3.78
2023-02-02T03:16:53.953Z,6.35
2023-02-02T03:19:21.408Z,4.18
2023-02-02T03:21:48.605Z,3.63
2023-02-02T03:24:15.531Z,5.38
2023-02-02T03:26:42.574Z,5.78
2023-02-02T03:29:09.934Z,3.75
2023-02-02T03:31:37.310Z,7.25
2023-02-02T03:34:04.343Z,5.28
2023-02-02T03:36:31.445Z,4.97
2023-02-02T03:38:58.469Z,6.82
2023-02-02T03:41:25.500Z,9.98
2023-02-02T03:43:52.505Z,11.55
2023-02-02T03:46:19.498Z,11.15
2023-02-02T03:48:46.503Z,12.55
2023-02-02T03:51:14.741Z,10.73
2023-02-02T03:53:47.655Z,8.77
2023-02-02T03:56:15.644Z,6.80
2023-02-02T03:58:42.662Z,7.45
2023-02-02T04:01:12.736Z,6.57
2023-02-02T04:03:39.725Z,11.88
2023-02-02T04:06:06.992Z,10.77
2023-02-02T04:08:34.371Z,11.27
2023-02-02T04:11:01.640Z,8.75
2023-02-02T04:13:28.687Z,11.07
2023-02-02T04:16:00.331Z,13.10
2023-02-02T04:18:28.029Z,12.20
2023-02-02T04:21:02.049Z,14.75
2023-02-02T04:23:30.139Z,21.83
2023-02-02T04:25:58.018Z,19.48
2023-02-02T04:28:26.234Z,17.05
2023-02-02T04:30:54.505Z,15.68
2023-02-02T04:33:22.932Z,16.38
2023-02-02T04:35:49.951Z,16.20
2023-02-02T04:38:16.998Z,16.17
2023-02-02T04:40:46.114Z,14.15
2023-02-02T04:43:13.890Z,13.88
2023-02-02T04:45:42.579Z,22.92
2023-02-02T04:48:10.212Z,20.55
2023-02-02T04:50:37.537Z,26.55
2023-02-02T04:53:05.402Z,31.95
2023-02-02T04:55:37.236Z,44.00
2023-02-02T04:58:05.377Z,42.85
2023-02-02T05:00:32.512Z,58.88
2023-02-02T05:03:00.739Z,66.10
2023-02-02T05:05:27.724Z,73.75
2023-02-02T05:07:54.742Z,67.80
2023-02-02T05:10:21.695Z,51.58
2023-02-02T05:12:48.758Z,49.13
2023-02-02T05:15:15.775Z,44.35
2023-02-02T05:17:42.831Z,39.10
2023-02-02T05:20:10.557Z,37.05
2023-02-02T05:22:37.597Z,44.78
2023-02-02T05:25:06.048Z,46.55
2023-02-02T05:27:33.105Z,53.60
2023-02-02T05:30:00.107Z,92.97
2023-02-02T05:32:28.967Z,98.93
2023-02-02T05:34:56.098Z,78.18
2023-02-02T05:37:23.297Z,60.85
2023-02-02T05:39:52.306Z,35.38
2023-02-02T05:42:19.575Z,30.88
2023-02-02T05:44:46.608Z,29.27
2023-02-02T05:47:13.908Z,37.63
2023-02-02T05:49:41.141Z,39.38
2023-02-02T05:52:10.996Z,46.25
2023-02-02T05:54:37.971Z,41.22
2023-02-02T05:57:05.043Z,88.90
2023-02-02T05:59:32.374Z,121.72
2023-02-02T06:01:59.917Z,157.60
2023-02-02T06:04:27.025Z,137.55
2023-02-02T06:06:54.090Z,93.07
2023-02-02T06:09:21.465Z,81.10
2023-02-02T06:11:50.142Z,73.78
2023-02-02T06:14:17.952Z,92.68
2023-02-02T06:16:44.893Z,72.03
2023-02-02T06:19:12.868Z,51.08
2023-02-02T06:21:39.919Z,49.47
2023-02-02T06:24:16.067Z,54.28
2023-02-02T06:26:44.164Z,58.63
2023-02-02T06:29:13.827Z,44.80
2023-02-02T06:31:41.188Z,29.63
2023-02-02T06:34:11.319Z,22.73
2023-02-02T06:36:38.629Z,36.72
2023-02-02T06:39:08.317Z,25.75
2023-02-02T06:41:36.803Z,31.35
2023-02-02T06:44:04.955Z,45.65
2023-02-02T06:46:32.230Z,39.65
2023-02-02T06:48:59.938Z,36.97
2023-02-02T06:51:28.388Z,47.53
2023-02-02T06:53:57.666Z,38.75
2023-02-02T06:56:26.427Z,34.95
2023-02-02T06:58:53.347Z,43.58
2023-02-02T07:01:20.298Z,24.02
2023-02-02T07:03:51.391Z,18.85
2023-02-02T07:06:25.137Z,15.57
2023-02-02T07:09:01.959Z,23.95
2023-02-02T07:11:36.715Z,23.50
2023-02-02T07:14:05.498Z,29.98
2023-02-02T07:16:32.817Z,25.38
2023-02-02T07:18:59.787Z,26.02
2023-02-02T07:21:35.904Z,34.08
2023-02-02T07:24:04.421Z,29.25
2023-02-02T07:26:31.939Z,37.75
2023-02-02T07:28:58.922Z,33.47
2023-02-02T07:31:27.152Z,23.30
2023-02-02T07:33:54.650Z,32.83
2023-02-02T07:36:24.056Z,34.30
2023-02-02T07:38:57.428Z,62.70
2023-02-02T07:41:24.974Z,35.28
2023-02-02T07:43:52.420Z,41.85
2023-02-02T07:46:20.640Z,36.30
2023-02-02T07:48:48.081Z,25.83
2023-02-02T07:51:17.188Z,18.95
2023-02-02T07:53:46.337Z,19.10
2023-02-02T07:56:16.289Z,14.95
2023-02-02T07:58:44.045Z,16.70
2023-02-02T08:01:13.532Z,20.35
2023-02-02T08:03:41.153Z,14.45
2023-02-02T08:06:15.200Z,15.43
2023-02-02T08:08:42.327Z,20.67
2023-02-02T08:11:11.091Z,19.08
2023-02-02T08:13:38.959Z,17.05
2023-02-02T08:16:07.433Z,15.95
2023-02-02T08:18:36.224Z,14.32
2023-02-02T08:21:05.122Z,11.25
2023-02-02T08:23:32.133Z,11.13
2023-02-02T08:26:14.023Z,14.00
2023-02-02T08:28:43.017Z,13.13
2023-02-02T08:31:14.520Z,11.38
2023-02-02T08:33:41.816Z,12.50
2023-02-02T08:36:15.438Z,18.23
2023-02-02T08:38:42.783Z,16.52
2023-02-02T08:41:12.821Z,16.90
2023-02-02T08:43:40.750Z,9.82
2023-02-02T08:46:14.564Z,8.48
2023-02-02T08:48:42.045Z,15.18
2023-02-02T08:51:11.803Z,7.38
2023-02-02T08:53:39.266Z,11.07
2023-02-02T08:56:22.971Z,11.52
2023-02-02T08:58:53.008Z,12.80
2023-02-02T09:01:21.734Z,7.53
2023-02-02T09:03:49.264Z,8.90
2023-02-02T09:06:19.715Z,8.13
2023-02-02T09:08:47.616Z,11.25
2023-02-02T09:11:17.476Z,9.35
2023-02-02T09:13:46.161Z,6.68
2023-02-02T09:16:16.108Z,6.47
2023-02-02T09:18:44.393Z,7.15
2023-02-02T09:21:13.871Z,10.90
2023-02-02T09:23:42.124Z,7.53
2023-02-02T09:26:21.002Z,6.97
2023-02-02T09:28:50.692Z,8.95
2023-02-02T09:31:18.115Z,9.48
2023-02-02T09:33:45.530Z,10.88
2023-02-02T09:36:15.244Z,10.80
2023-02-02T09:38:43.486Z,8.57
2023-02-02T09:41:35.793Z,7.20
2023-02-02T09:44:34.917Z,14.15
2023-02-02T09:47:31.810Z,7.13
2023-02-02T09:50:04.770Z,8.38
2023-02-02T09:52:31.713Z,8.50
2023-02-02T09:55:05.001Z,10.13
2023-02-02T09:57:42.692Z,8.85
2023-02-02T10:00:34.269Z,23.08
2023-02-02T10:03:18.632Z,19.48
2023-02-02T10:06:24.249Z,8.48
2023-02-02T10:08:57.538Z,8.85
2023-02-02T10:11:42.704Z,15.43
2023-02-02T10:14:27.956Z,10.63
2023-02-02T10:16:57.650Z,7.75
2023-02-02T10:19:29.780Z,4.45
2023-02-02T10:22:13.288Z,12.77
2023-02-02T10:24:40.741Z,29.80
2023-02-02T10:27:15.332Z,10.25
2023-02-02T10:29:58.711Z,8.98
2023-02-02T10:32:59.607Z,11.88
2023-02-02T10:35:47.794Z,6.18
2023-02-02T10:41:14.158Z,4.18
2023-02-02T10:46:33.890Z,4.47
2023-02-02T10:49:19.075Z,4.55
2023-02-02T10:51:59.680Z,7.88
2023-02-02T10:54:57.189Z,7.70
2023-02-02T10:57:54.017Z,5.07
2023-02-02T11:00:29.009Z,5.75
2023-02-02T11:02:56.350Z,3.72
2023-02-02T11:05:44.901Z,3.85
2023-02-02T11:09:00.983Z,4.07
2023-02-02T11:11:42.906Z,6.53
2023-02-02T11:14:10.465Z,7.85
2023-02-02T11:16:44.316Z,7.03
2023-02-02T11:19:17.577Z,9.68
2023-02-02T11:21:56.494Z,8.70
2023-02-02T11:24:48.483Z,9.65
2023-02-02T11:27:24.285Z,8.57
2023-02-02T11:29:59.519Z,7.90
2023-02-02T11:32:28.513Z,9.38
2023-02-02T11:35:04.418Z,7.50
2023-02-02T11:37:33.529Z,6.38
2023-02-02T11:40:26.493Z,7.82
2023-02-02T11:42:55.037Z,11.18
2023-02-02T11:45:37.421Z,6.00
2023-02-02T11:48:20.915Z,12.75
2023-02-02T11:50:55.521Z,11.95
2023-02-02T11:53:30.335Z,11.50
2023-02-02T11:56:02.374Z,9.05
2023-02-02T11:58:50.498Z,10.27
2023-02-02T12:01:31.270Z,9.77
2023-02-02T12:04:04.837Z,8.38
2023-02-02T12:06:38.304Z,12.48
2023-02-02T12:09:26.003Z,10.27
2023-02-02T12:12:17.820Z,7.13
2023-02-02T12:15:09.679Z,8.95
2023-02-02T12:17:42.741Z,9.57
2023-02-02T12:20:37.781Z,11.77
2023-02-02T12:23:26.080Z,10.75
2023-02-02T12:26:10.024Z,11.88
2023-02-02T12:28:42.810Z,9.40
2023-02-02T12:31:37.641Z,9.93
2023-02-02T12:34:46.241Z,11.98
2023-02-02T12:37:55.791Z,9.75
2023-02-02T12:40:40.740Z,9.55
2023-02-02T12:43:51.920Z,17.05
2023-02-02T12:46:29.763Z,12.73
2023-02-02T12:49:15.766Z,10.57
2023-02-02T12:52:00.601Z,11.98
2023-02-02T12:55:09.675Z,11.93
2023-02-02T12:57:53.286Z,16.15
2023-02-02T13:01:02.302Z,11.75
2023-02-02T13:04:00.296Z,11.80
2023-02-02T13:06:51.656Z,17.23
2023-02-02T13:09:30.291Z,40.92
2023-02-02T13:12:02.127Z,28.67
2023-02-02T13:14:51.849Z,16.35
2023-02-02T13:17:27.032Z,21.00
2023-02-02T13:19:59.793Z,12.73
2023-02-02T13:22:34.655Z,10.95
2023-02-02T13:25:05.233Z,26.00
2023-02-02T13:27:32.967Z,30.75
2023-02-02T13:30:12.968Z,24.05
2023-02-02T13:32:43.864Z,24.33
2023-02-02T13:35:25.605Z,16.05
2023-02-02T13:38:20.125Z,16.17
2023-02-02T13:40:48.041Z,18.20
2023-02-02T13:43:42.465Z,24.00
2023-02-02T13:46:24.073Z,29.67
2023-02-02T13:49:15.034Z,34.53
2023-02-02T13:52:03.396Z,47.83
2023-02-02T13:55:05.225Z,76.38
2023-02-02T13:57:53.438Z,21.00
2023-02-02T14:00:30.534Z,14.60
2023-02-02T14:03:06.855Z,15.63
2023-02-02T14:08:25.378Z,32.33
2023-02-02T14:10:58.653Z,30.27
2023-02-02T14:14:15.759Z,17.98
2023-02-02T14:16:47.095Z,16.70
2023-02-02T14:19:18.623Z,15.95
2023-02-02T14:21:55.205Z,14.93
2023-02-02T14:24:37.532Z,17.73
2023-02-02T14:27:08.563Z,19.80
2023-02-02T14:29:58.231Z,19.75
2023-02-02T14:32:25.579Z,22.45
2023-02-02T14:35:00.532Z,19.67
2023-02-02T14:37:27.496Z,30.13
2023-02-02T14:40:14.019Z,35.60
2023-02-02T14:43:11.846Z,31.15
2023-02-02T14:45:43.040Z,16.83
2023-02-02T14:48:21.573Z,16.15
2023-02-02T14:51:04.184Z,21.17
2023-02-02T14:53:37.546Z,21.58
2023-02-02T14:56:10.709Z,33.40
2023-02-02T14:58:44.202Z,30.98
2023-02-02T15:01:25.201Z,37.22
2023-02-02T15:04:21.672Z,23.70
2023-02-02T15:06:54.013Z,15.60
2023-02-02T15:09:21.047Z,37.53
2023-02-02T15:12:02.089Z,31.48
2023-02-02T15:17:43.090Z,37.58
2023-02-02T15:21:01.758Z,24.88
2023-02-02T15:23:45.307Z,27.67
2023-02-02T15:26:39.349Z,30.67
2023-02-02T15:29:23.743Z,31.65
2023-02-02T15:32:02.730Z,37.50
2023-02-02T15:34:56.862Z,40.15
2023-02-02T15:37:47.269Z,33.83
2023-02-02T15:40:21.674Z,28.50
2023-02-02T15:43:05.333Z,36.20
2023-02-02T15:45:56.249Z,40.85
2023-02-02T15:48:30.078Z,29.67
2023-02-02T15:51:00.451Z,25.40
2023-02-02T15:53:33.829Z,44.97
2023-02-02T15:56:18.152Z,34.30
2023-02-02T15:58:57.252Z,28.25
2023-02-02T16:01:26.021Z,34.30
2023-02-02T16:04:31.157Z,23.83
2023-02-02T16:06:59.133Z,43.20
2023-02-02T16:09:33.165Z,51.30
2023-02-02T16:12:05.081Z,26.42
2023-02-02T16:14:39.767Z,15.63
2023-02-02T16:17:40.759Z,15.40
2023-02-02T16:20:18.210Z,24.08
2023-02-02T16:22:48.653Z,19.27
2023-02-02T16:25:22.605Z,19.27
2023-02-02T16:27:51.932Z,29.05
2023-02-02T16:30:35.802Z,30.95
2023-02-02T16:33:40.338Z,77.32
2023-02-02T16:36:26.653Z,61.65
2023-02-02T16:38:55.567Z,79.63
2023-02-02T16:41:37.099Z,89.75
2023-02-02T16:44:30.037Z,52.67
2023-02-02T16:49:50.460Z,30.65
2023-02-02T16:55:31.547Z,18.27
2023-02-02T16:58:37.817Z,24.63
2023-02-02T17:01:15.819Z,28.65
2023-02-02T17:03:55.409Z,23.25
2023-02-02T17:06:50.143Z,13.32
2023-02-02T17:09:38.055Z,22.13
2023-02-02T17:12:33.236Z,19.95
2023-02-02T17:15:21.068Z,17.63
2023-02-02T17:17:53.128Z,20.60
2023-02-02T17:20:21.257Z,27.02
2023-02-02T17:23:00.860Z,30.48
2023-02-02T17:25:33.672Z,19.42
2023-02-02T17:28:02.683Z,22.15
2023-02-02T17:30:32.222Z,24.65
2023-02-02T17:33:00.277Z,19.95
2023-02-02T17:35:47.321Z,34.40
2023-02-02T17:38:24.446Z,25.38
2023-02-02T17:40:55.551Z,24.67
2023-02-02T17:43:27.641Z,17.63
2023-02-02T17:46:00.655Z,20.42
2023-02-02T17:48:33.536Z,21.23
2023-02-02T17:51:04.254Z,13.82
2023-02-02T17:53:33.507Z,15.45
2023-02-02T17:56:00.906Z,11.48
2023-02-02T17:58:35.789Z,17.75
2023-02-02T18:01:06.539Z,16.05
2023-02-02T18:03:38.625Z,21.05
2023-02-02T18:06:06.974Z,17.45
2023-02-02T18:08:35.149Z,17.27
2023-02-02T18:11:09.949Z,18.65
2023-02-02T18:13:39.373Z,12.80
2023-02-02T18:16:12.373Z,13.50
2023-02-02T18:18:41.927Z,12.88
2023-02-02T18:21:16.627Z,17.45
2023-02-02T18:23:49.712Z,15.57
2023-02-02T18:26:23.890Z,11.00
2023-02-02T18:28:57.811Z,24.67
2023-02-02T18:31:28.782Z,23.55
2023-02-02T18:34:00.030Z,26.45
2023-02-02T18:36:31.354Z,23.55
2023-02-02T18:39:00.114Z,19.65
2023-02-02T18:41:28.481Z,14.32
2023-02-02T18:43:56.972Z,20.60
2023-02-02T18:46:24.913Z,22.50
2023-02-02T18:48:53.587Z,25.20
2023-02-02T18:51:22.850Z,34.40
2023-02-02T18:53:53.703Z,11.95
2023-02-02T18:56:22.436Z,15.77
2023-02-02T18:58:50.313Z,31.17
2023-02-02T19:01:19.512Z,31.92
2023-02-02T19:03:54.637Z,36.05
2023-02-02T19:06:43.649Z,9.00
2023-02-02T19:09:19.915Z,8.27
2023-02-02T19:12:04.844Z,14.40
2023-02-02T19:14:55.409Z,5.63
2023-02-02T19:17:32.580Z,8.55
2023-02-02T19:20:28.368Z,11.70
2023-02-02T19:23:13.379Z,7.95
2023-02-02T19:25:42.387Z,5.97
2023-02-02T19:28:28.365Z,10.40
2023-02-02T19:31:02.652Z,9.77
2023-02-02T19:33:47.247Z,14.50
2023-02-02T19:36:21.126Z,12.57
2023-02-02T19:38:55.855Z,12.02
2023-02-02T19:41:28.268Z,20.95
2023-02-02T19:44:03.282Z,13.32
2023-02-02T19:46:32.214Z,15.73
2023-02-02T19:49:15.132Z,9.40
2023-02-02T19:51:52.808Z,6.85
2023-02-02T19:54:34.082Z,11.50
2023-02-02T19:57:13.616Z,6.95
2023-02-02T19:59:43.448Z,8.23
2023-02-02T20:02:41.486Z,8.35
2023-02-02T20:05:17.928Z,8.95
2023-02-02T20:07:45.260Z,16.23
2023-02-02T20:10:28.802Z,9.35
2023-02-02T20:12:56.286Z,6.10
2023-02-02T20:15:35.088Z,10.38
2023-02-02T20:18:11.739Z,8.98
2023-02-02T20:20:42.362Z,13.80
2023-02-02T20:23:28.260Z,12.48
2023-02-02T20:25:56.447Z,9.40
2023-02-02T20:28:42.258Z,13.73
2023-02-02T20:31:15.230Z,20.55
2023-02-02T20:33:48.143Z,15.55
2023-02-02T20:36:51.500Z,23.98
2023-02-02T20:39:34.669Z,20.63
2023-02-02T20:42:06.170Z,34.92
2023-02-02T20:44:34.785Z,50.90
2023-02-02T20:47:02.256Z,37.85
2023-02-02T20:49:32.100Z,22.00
2023-02-02T20:52:02.449Z,23.50
2023-02-02T20:54:30.078Z,48.00
2023-02-02T20:56:58.581Z,19.33
2023-02-02T20:59:25.615Z,12.60
2023-02-02T21:01:53.217Z,21.45
2023-02-02T21:04:21.596Z,13.90
2023-02-02T21:06:49.438Z,22.33
2023-02-02T21:09:17.720Z,13.30
2023-02-02T21:11:45.225Z,19.63
2023-02-02T21:14:12.258Z,11.40
2023-02-02T21:16:39.372Z,11.77
2023-02-02T21:19:06.374Z,22.55
2023-02-02T21:21:33.401Z,21.27
2023-02-02T21:24:01.037Z,13.75
2023-02-02T21:26:30.829Z,18.55
2023-02-02T21:28:58.573Z,16.40
2023-02-02T21:31:25.959Z,35.42
2023-02-02T21:33:53.947Z,24.33
2023-02-02T21:36:21.094Z,10.80
2023-02-02T21:38:48.144Z,20.45
2023-02-02T21:41:16.316Z,23.23
2023-02-02T21:43:43.436Z,16.73
2023-02-02T21:46:25.782Z,16.10
2023-02-02T21:48:52.819Z,13.50
2023-02-02T21:51:24.341Z,9.95
2023-02-02T21:53:52.140Z,17.98
2023-02-02T21:56:36.097Z,10.73
2023-02-02T21:59:15.505Z,10.65
2023-02-02T22:01:43.933Z,7.10
2023-02-02T22:04:19.313Z,10.55
2023-02-02T22:06:48.340Z,7.63
2023-02-02T22:09:27.017Z,10.07
2023-02-02T22:12:02.255Z,13.32
2023-02-02T22:14:41.350Z,17.70
2023-02-02T22:17:22.388Z,10.65
2023-02-02T22:20:01.323Z,9.70
2023-02-02T22:22:36.259Z,7.68
2023-02-02T22:25:24.025Z,6.78
2023-02-02T22:27:54.120Z,6.00
2023-02-02T22:30:44.516Z,13.48
2023-02-02T22:33:13.186Z,9.40
2023-02-02T22:35:41.154Z,9.32
2023-02-02T22:38:08.661Z,6.72
2023-02-02T22:40:36.276Z,9.90
2023-02-02T22:43:05.914Z,8.65
2023-02-02T22:45:33.214Z,7.57
2023-02-02T22:48:00.353Z,6.43
2023-02-02T22:50:29.687Z,7.35
2023-02-02T22:52:56.695Z,7.07
2023-02-02T22:55:23.954Z,5.38
2023-02-02T22:57:51.031Z,4.18
2023-02-02T23:00:20.482Z,6.15
2023-02-02T23:02:47.790Z,6.63
2023-02-02T23:05:17.280Z,5.30
2023-02-02T23:07:45.775Z,8.30
2023-02-02T23:10:14.994Z,7.03
2023-02-02T23:12:43.065Z,7.00
2023-02-02T23:15:11.299Z,5.68
2023-02-02T23:17:38.536Z,5.57
2023-02-02T23:20:08.829Z,5.30
2023-02-02T23:22:36.168Z,7.13
2023-02-02T23:25:03.505Z,9.10
2023-02-02T23:27:30.462Z,8.10
2023-02-02T23:29:57.406Z,13.30
2023-02-02T23:32:24.551Z,7.78
2023-02-02T23:34:51.501Z,9.02
2023-02-02T23:37:18.844Z,11.35
2023-02-02T23:39:45.766Z,11.38
2023-02-02T23:42:12.762Z,8.68
2023-02-02T23:44:39.855Z,10.95
2023-02-02T23:47:07.005Z,9.27
2023-02-02T23:49:35.022Z,9.70
2023-02-02T23:52:02.551Z,4.95
2023-02-02T23:54:29.757Z,8.52
2023-02-02T23:56:57.549Z,6.65
2023-02-02T23:59:24.592Z,8.82
